Terminal Aerodrome Forecast
Issued by NWS

Home | Current Version | Previous Version | Text Only | Print | Product List | Glossary On
Versions: 1 2 3 4 5 6 7 8 9 10 11 12 13 14 15 16 17 18 19 20 21 22 23 24
000
FTAK31 PANC 031125
TAFAAQ
TAF
PAAQ 031125Z 0312/0412 34007KT P6SM BKN120 OVC200
     FM031500 VRB05KT P6SM FEW050 BKN080 OVC120
     FM031700 13008KT P6SM -RA SCT025 OVC040
     FM032200 13008KT 5SM -RA BR OVC025=

USA.gov is the U.S. government's official web portal to all federal, state and local government web resources and services.